Huvudsida
METAR-TAF:

METAR-TAF

Flygplatser :

Al-`Ula, Saudiarabien

latitud: 26-29-00N, longitud: 038-07-01E, höjd: 624 m

Aktuellt väderrapport

Denna rapport gjordes för 47 minuter sedan, klockan 04:00 UTC
Stilla vind
Temperatur 11°C
Fuktighet 43%
Tryck 1015 hPa
Sikt 10 km eller mer
Inga moln under 1 500 m eller inga cumulonimbus

METAR: OEAO 190400Z 00000KT CAVOK 11/M01 Q1015

Tid: 07:47 (04:47 UTC)

Väderprognos

Denna rapport gjordes för 5 timmar och 47 minuter sedan, klockan 23:00 UTC
Prognos gäller från 19 kl. 00 UTC till 20 kl. 06 UTC
Vind 8 kt från nordost
Sikt: 7000 m
Få moln på en höjd av 4000 ft
Blir
från 19 kl. 06 UTC till 19 kl. 08 UTC
Vind 17 kt från väst/sydväst
Temporärt
från 19 kl. 06 UTC till 19 kl. 16 UTC
Få moln på en höjd av 3000 ft, Cumulonimbus.
Spridda moln på en höjd av 4000 ft
Blir
från 19 kl. 17 UTC till 19 kl. 19 UTC
Vind 8 kt från nord

TAF: OEAO 182300Z 1900/2006 04008KT 7000 FEW040 BECMG 1906/1908 25017KT TEMPO 1906/1916 FEW030CB SCT040 BECMG 1917/1919 36008KT

Aktuella väderrapporter och prognoser från 4000 flygplatser (METAR- och TAF-rapporter).

De tillgängliga stationerna syns som gula och röda prickar på kartan.

För musen över prickarna för att se namnen på stationerna.

Klicka sedan för att få väderrapporter och prognoser.

För att ändra kartan: Klicka på de gröna knapparna med ett svart kors på för att zooma in; den gröna knappen med ett streck på för att zooma ut; eller på de gröna pilarna för angränsande kartor.


METAR-TAF: